sensor_id;sensor_type;location;lat;lon;timestamp;P1;durP1;ratioP1;P2;durP2;ratioP2
73893;SDS011;62699;50.534;12.784;2023-01-10T00:02:43;3.47;;;2.17;;
73893;SDS011;62699;50.534;12.784;2023-01-10T00:07:43;3.40;;;2.50;;
73893;SDS011;62699;50.534;12.784;2023-01-10T00:12:44;3.60;;;2.28;;
73893;SDS011;62699;50.534;12.784;2023-01-10T00:18:03;5.13;;;2.42;;
73893;SDS011;62699;50.534;12.784;2023-01-10T00:23:04;3.53;;;2.40;;
73893;SDS011;62699;50.534;12.784;2023-01-10T00:28:04;7.07;;;2.50;;
73893;SDS011;62699;50.534;12.784;2023-01-10T00:33:18;3.33;;;2.30;;
73893;SDS011;62699;50.534;12.784;2023-01-10T00:38:18;5.45;;;2.88;;
73893;SDS011;62699;50.534;12.784;2023-01-10T00:43:19;3.75;;;2.30;;
73893;SDS011;62699;50.534;12.784;2023-01-10T00:48:37;9.57;;;3.00;;
73893;SDS011;62699;50.534;12.784;2023-01-10T00:53:38;6.30;;;2.83;;
73893;SDS011;62699;50.534;12.784;2023-01-10T00:58:38;5.45;;;2.58;;
73893;SDS011;62699;50.534;12.784;2023-01-10T01:03:38;5.93;;;3.20;;
73893;SDS011;62699;50.534;12.784;2023-01-10T01:08:39;5.07;;;3.22;;
73893;SDS011;62699;50.534;12.784;2023-01-10T01:13:39;6.72;;;3.65;;
73893;SDS011;62699;50.534;12.784;2023-01-10T01:18:39;6.43;;;3.58;;
73893;SDS011;62699;50.534;12.784;2023-01-10T01:23:40;7.35;;;3.85;;
73893;SDS011;62699;50.534;12.784;2023-01-10T01:28:40;5.97;;;3.10;;
73893;SDS011;62699;50.534;12.784;2023-01-10T01:33:40;6.63;;;3.50;;
73893;SDS011;62699;50.534;12.784;2023-01-10T01:38:40;5.93;;;3.35;;
73893;SDS011;62699;50.534;12.784;2023-01-10T01:43:57;7.10;;;3.15;;
73893;SDS011;62699;50.534;12.784;2023-01-10T01:48:59;7.22;;;3.30;;
73893;SDS011;62699;50.534;12.784;2023-01-10T01:54:01;6.15;;;3.13;;
73893;SDS011;62699;50.534;12.784;2023-01-10T01:59:13;5.13;;;3.00;;
73893;SDS011;62699;50.534;12.784;2023-01-10T02:04:25;6.53;;;3.35;;
73893;SDS011;62699;50.534;12.784;2023-01-10T02:09:36;5.10;;;3.35;;
73893;SDS011;62699;50.534;12.784;2023-01-10T02:14:42;6.50;;;3.15;;
73893;SDS011;62699;50.534;12.784;2023-01-10T02:19:50;7.85;;;3.50;;
73893;SDS011;62699;50.534;12.784;2023-01-10T02:25:01;6.82;;;3.40;;
73893;SDS011;62699;50.534;12.784;2023-01-10T02:30:32;7.53;;;3.42;;
73893;SDS011;62699;50.534;12.784;2023-01-10T02:35:45;7.22;;;3.22;;
73893;SDS011;62699;50.534;12.784;2023-01-10T02:46:15;7.13;;;3.53;;
73893;SDS011;62699;50.534;12.784;2023-01-10T02:51:24;7.40;;;3.80;;
73893;SDS011;62699;50.534;12.784;2023-01-10T03:07:36;7.13;;;3.60;;
73893;SDS011;62699;50.534;12.784;2023-01-10T03:12:57;6.47;;;3.47;;
73893;SDS011;62699;50.534;12.784;2023-01-10T03:18:05;7.25;;;3.40;;
73893;SDS011;62699;50.534;12.784;2023-01-10T03:23:09;7.53;;;4.00;;
73893;SDS011;62699;50.534;12.784;2023-01-10T03:28:14;5.95;;;3.72;;
73893;SDS011;62699;50.534;12.784;2023-01-10T03:33:19;7.90;;;3.83;;
73893;SDS011;62699;50.534;12.784;2023-01-10T03:38:26;8.10;;;3.63;;
73893;SDS011;62699;50.534;12.784;2023-01-10T03:43:44;9.13;;;3.88;;
73893;SDS011;62699;50.534;12.784;2023-01-10T03:49:06;7.97;;;3.83;;
73893;SDS011;62699;50.534;12.784;2023-01-10T03:54:08;6.40;;;3.83;;
73893;SDS011;62699;50.534;12.784;2023-01-10T03:59:08;9.27;;;4.18;;
73893;SDS011;62699;50.534;12.784;2023-01-10T04:04:08;6.80;;;3.63;;
73893;SDS011;62699;50.534;12.784;2023-01-10T04:09:10;10.50;;;4.00;;
73893;SDS011;62699;50.534;12.784;2023-01-10T04:14:10;8.93;;;3.70;;
73893;SDS011;62699;50.534;12.784;2023-01-10T04:19:11;8.00;;;4.05;;
73893;SDS011;62699;50.534;12.784;2023-01-10T04:24:11;6.47;;;3.83;;
73893;SDS011;62699;50.534;12.784;2023-01-10T04:34:41;7.13;;;3.63;;
73893;SDS011;62699;50.534;12.784;2023-01-10T04:39:41;7.82;;;3.63;;
73893;SDS011;62699;50.534;12.784;2023-01-10T04:44:41;7.72;;;4.10;;
73893;SDS011;62699;50.534;12.784;2023-01-10T04:49:42;7.80;;;4.20;;
73893;SDS011;62699;50.534;12.784;2023-01-10T04:54:42;9.60;;;4.53;;
73893;SDS011;62699;50.534;12.784;2023-01-10T04:59:42;9.57;;;4.07;;
73893;SDS011;62699;50.534;12.784;2023-01-10T05:04:42;7.60;;;3.67;;
73893;SDS011;62699;50.534;12.784;2023-01-10T05:09:42;8.50;;;4.20;;
73893;SDS011;62699;50.534;12.784;2023-01-10T05:14:43;9.25;;;3.97;;
73893;SDS011;62699;50.534;12.784;2023-01-10T05:19:43;9.52;;;4.47;;
73893;SDS011;62699;50.534;12.784;2023-01-10T05:24:43;9.38;;;4.85;;
73893;SDS011;62699;50.534;12.784;2023-01-10T05:29:43;13.48;;;6.47;;
73893;SDS011;62699;50.534;12.784;2023-01-10T05:34:44;13.02;;;6.00;;
73893;SDS011;62699;50.534;12.784;2023-01-10T05:39:44;11.35;;;5.20;;
73893;SDS011;62699;50.534;12.784;2023-01-10T05:44:44;25.65;;;12.95;;
73893;SDS011;62699;50.534;12.784;2023-01-10T05:49:44;8.00;;;3.92;;
73893;SDS011;62699;50.534;12.784;2023-01-10T05:54:45;10.25;;;5.40;;
73893;SDS011;62699;50.534;12.784;2023-01-10T05:59:45;23.20;;;11.57;;
73893;SDS011;62699;50.534;12.784;2023-01-10T06:04:45;7.13;;;3.92;;
73893;SDS011;62699;50.534;12.784;2023-01-10T06:15:26;7.95;;;4.00;;
73893;SDS011;62699;50.534;12.784;2023-01-10T06:20:27;12.20;;;4.35;;
73893;SDS011;62699;50.534;12.784;2023-01-10T06:25:27;12.40;;;6.88;;
73893;SDS011;62699;50.534;12.784;2023-01-10T06:30:28;6.82;;;4.20;;
73893;SDS011;62699;50.534;12.784;2023-01-10T06:35:28;8.82;;;4.63;;
73893;SDS011;62699;50.534;12.784;2023-01-10T06:40:29;8.57;;;4.50;;
73893;SDS011;62699;50.534;12.784;2023-01-10T06:45:29;9.45;;;4.10;;
73893;SDS011;62699;50.534;12.784;2023-01-10T06:50:30;8.25;;;4.10;;
73893;SDS011;62699;50.534;12.784;2023-01-10T06:55:30;18.33;;;9.02;;
73893;SDS011;62699;50.534;12.784;2023-01-10T07:00:31;11.85;;;6.82;;
73893;SDS011;62699;50.534;12.784;2023-01-10T07:05:32;8.35;;;4.60;;
73893;SDS011;62699;50.534;12.784;2023-01-10T07:10:32;20.88;;;10.43;;
73893;SDS011;62699;50.534;12.784;2023-01-10T07:15:32;6.97;;;3.60;;
73893;SDS011;62699;50.534;12.784;2023-01-10T07:20:33;11.60;;;4.85;;
73893;SDS011;62699;50.534;12.784;2023-01-10T07:25:33;10.10;;;4.70;;
73893;SDS011;62699;50.534;12.784;2023-01-10T07:30:33;6.93;;;3.30;;
73893;SDS011;62699;50.534;12.784;2023-01-10T07:35:34;9.48;;;5.07;;
73893;SDS011;62699;50.534;12.784;2023-01-10T07:40:35;6.95;;;3.45;;
73893;SDS011;62699;50.534;12.784;2023-01-10T07:45:35;26.05;;;10.40;;
73893;SDS011;62699;50.534;12.784;2023-01-10T07:50:36;7.97;;;3.70;;
73893;SDS011;62699;50.534;12.784;2023-01-10T07:55:36;6.60;;;3.85;;
73893;SDS011;62699;50.534;12.784;2023-01-10T08:00:38;8.13;;;4.30;;
73893;SDS011;62699;50.534;12.784;2023-01-10T08:05:39;16.00;;;8.73;;
73893;SDS011;62699;50.534;12.784;2023-01-10T08:10:39;8.68;;;4.68;;
73893;SDS011;62699;50.534;12.784;2023-01-10T08:15:39;10.13;;;5.32;;
73893;SDS011;62699;50.534;12.784;2023-01-10T08:20:40;10.15;;;6.07;;
73893;SDS011;62699;50.534;12.784;2023-01-10T08:25:40;8.48;;;4.78;;
73893;SDS011;62699;50.534;12.784;2023-01-10T08:30:41;9.50;;;4.53;;
73893;SDS011;62699;50.534;12.784;2023-01-10T08:35:42;9.43;;;4.35;;
73893;SDS011;62699;50.534;12.784;2023-01-10T08:40:42;7.63;;;4.15;;
73893;SDS011;62699;50.534;12.784;2023-01-10T08:45:43;11.75;;;4.72;;
73893;SDS011;62699;50.534;12.784;2023-01-10T08:50:43;14.12;;;5.04;;
73893;SDS011;62699;50.534;12.784;2023-01-10T08:55:43;8.63;;;4.00;;
73893;SDS011;62699;50.534;12.784;2023-01-10T09:00:43;7.20;;;4.03;;
73893;SDS011;62699;50.534;12.784;2023-01-10T09:05:44;7.97;;;4.07;;
73893;SDS011;62699;50.534;12.784;2023-01-10T09:10:44;11.38;;;4.45;;
73893;SDS011;62699;50.534;12.784;2023-01-10T09:15:44;8.43;;;4.70;;
73893;SDS011;62699;50.534;12.784;2023-01-10T09:20:44;10.13;;;4.00;;
73893;SDS011;62699;50.534;12.784;2023-01-10T09:25:46;9.32;;;4.45;;
73893;SDS011;62699;50.534;12.784;2023-01-10T09:30:47;9.23;;;3.88;;
73893;SDS011;62699;50.534;12.784;2023-01-10T09:35:47;10.10;;;3.90;;
73893;SDS011;62699;50.534;12.784;2023-01-10T09:56:32;10.85;;;4.60;;
73893;SDS011;62699;50.534;12.784;2023-01-10T10:01:34;10.85;;;4.82;;
73893;SDS011;62699;50.534;12.784;2023-01-10T10:06:37;12.30;;;5.05;;
73893;SDS011;62699;50.534;12.784;2023-01-10T10:11:46;40.45;;;23.63;;
73893;SDS011;62699;50.534;12.784;2023-01-10T10:17:14;10.98;;;5.10;;
73893;SDS011;62699;50.534;12.784;2023-01-10T10:27:47;9.95;;;3.00;;
73893;SDS011;62699;50.534;12.784;2023-01-10T10:38:44;8.75;;;3.10;;
73893;SDS011;62699;50.534;12.784;2023-01-10T10:43:46;8.98;;;3.10;;
73893;SDS011;62699;50.534;12.784;2023-01-10T10:54:14;7.70;;;3.47;;
73893;SDS011;62699;50.534;12.784;2023-01-10T10:59:16;14.60;;;6.95;;
73893;SDS011;62699;50.534;12.784;2023-01-10T11:04:19;15.90;;;6.53;;
73893;SDS011;62699;50.534;12.784;2023-01-10T11:09:22;10.23;;;4.07;;
73893;SDS011;62699;50.534;12.784;2023-01-10T11:14:54;7.30;;;3.15;;
73893;SDS011;62699;50.534;12.784;2023-01-10T11:19:55;9.38;;;3.63;;
73893;SDS011;62699;50.534;12.784;2023-01-10T11:25:13;10.23;;;2.90;;
73893;SDS011;62699;50.534;12.784;2023-01-10T11:30:25;61.25;;;35.35;;
73893;SDS011;62699;50.534;12.784;2023-01-10T11:35:31;6.38;;;3.70;;
73893;SDS011;62699;50.534;12.784;2023-01-10T11:40:35;7.83;;;3.13;;
73893;SDS011;62699;50.534;12.784;2023-01-10T11:45:38;4.68;;;2.17;;
73893;SDS011;62699;50.534;12.784;2023-01-10T11:50:40;5.30;;;2.33;;
73893;SDS011;62699;50.534;12.784;2023-01-10T11:55:45;7.53;;;2.58;;
73893;SDS011;62699;50.534;12.784;2023-01-10T12:00:47;5.60;;;2.25;;
73893;SDS011;62699;50.534;12.784;2023-01-10T12:05:52;5.85;;;2.28;;
73893;SDS011;62699;50.534;12.784;2023-01-10T12:10:59;8.80;;;2.70;;
73893;SDS011;62699;50.534;12.784;2023-01-10T12:16:17;9.70;;;2.67;;
73893;SDS011;62699;50.534;12.784;2023-01-10T12:21:28;5.10;;;2.75;;
73893;SDS011;62699;50.534;12.784;2023-01-10T12:26:33;5.40;;;2.15;;
73893;SDS011;62699;50.534;12.784;2023-01-10T12:31:34;5.97;;;2.25;;
73893;SDS011;62699;50.534;12.784;2023-01-10T12:47:33;8.13;;;3.03;;
73893;SDS011;62699;50.534;12.784;2023-01-10T12:52:47;6.82;;;3.22;;
73893;SDS011;62699;50.534;12.784;2023-01-10T12:58:02;3.80;;;2.22;;
73893;SDS011;62699;50.534;12.784;2023-01-10T13:03:08;7.35;;;2.35;;
73893;SDS011;62699;50.534;12.784;2023-01-10T13:08:12;5.65;;;2.50;;
73893;SDS011;62699;50.534;12.784;2023-01-10T13:13:18;6.93;;;2.20;;
73893;SDS011;62699;50.534;12.784;2023-01-10T13:18:31;4.97;;;2.55;;
73893;SDS011;62699;50.534;12.784;2023-01-10T13:23:32;6.10;;;2.72;;
73893;SDS011;62699;50.534;12.784;2023-01-10T13:28:33;6.22;;;2.70;;
73893;SDS011;62699;50.534;12.784;2023-01-10T13:33:48;7.15;;;3.17;;
73893;SDS011;62699;50.534;12.784;2023-01-10T13:38:55;9.65;;;2.42;;
73893;SDS011;62699;50.534;12.784;2023-01-10T13:44:07;6.10;;;3.10;;
73893;SDS011;62699;50.534;12.784;2023-01-10T14:04:46;4.82;;;2.67;;
73893;SDS011;62699;50.534;12.784;2023-01-10T14:09:49;6.38;;;2.30;;
73893;SDS011;62699;50.534;12.784;2023-01-10T14:14:53;6.88;;;3.22;;
73893;SDS011;62699;50.534;12.784;2023-01-10T14:20:02;10.02;;;2.95;;
73893;SDS011;62699;50.534;12.784;2023-01-10T14:25:04;10.02;;;2.60;;
73893;SDS011;62699;50.534;12.784;2023-01-10T14:30:07;5.65;;;2.40;;
73893;SDS011;62699;50.534;12.784;2023-01-10T14:51:14;9.05;;;3.42;;
73893;SDS011;62699;50.534;12.784;2023-01-10T14:56:21;6.93;;;2.40;;
73893;SDS011;62699;50.534;12.784;2023-01-10T15:01:25;4.70;;;2.28;;
73893;SDS011;62699;50.534;12.784;2023-01-10T15:06:28;12.45;;;5.60;;
73893;SDS011;62699;50.534;12.784;2023-01-10T15:11:28;9.30;;;5.32;;
73893;SDS011;62699;50.534;12.784;2023-01-10T15:16:30;5.30;;;3.55;;
73893;SDS011;62699;50.534;12.784;2023-01-10T15:21:31;4.03;;;2.60;;
73893;SDS011;62699;50.534;12.784;2023-01-10T15:26:31;5.55;;;2.60;;
73893;SDS011;62699;50.534;12.784;2023-01-10T15:31:36;4.43;;;2.45;;
73893;SDS011;62699;50.534;12.784;2023-01-10T15:36:39;9.70;;;3.47;;
73893;SDS011;62699;50.534;12.784;2023-01-10T15:41:44;7.22;;;3.25;;
73893;SDS011;62699;50.534;12.784;2023-01-10T15:46:55;5.15;;;2.97;;
73893;SDS011;62699;50.534;12.784;2023-01-10T15:51:56;5.97;;;3.20;;
73893;SDS011;62699;50.534;12.784;2023-01-10T15:56:59;8.55;;;3.42;;
73893;SDS011;62699;50.534;12.784;2023-01-10T16:02:16;9.10;;;3.67;;
73893;SDS011;62699;50.534;12.784;2023-01-10T16:07:21;41.45;;;21.00;;
73893;SDS011;62699;50.534;12.784;2023-01-10T16:12:32;11.18;;;4.75;;
73893;SDS011;62699;50.534;12.784;2023-01-10T16:17:56;12.52;;;6.13;;
73893;SDS011;62699;50.534;12.784;2023-01-10T16:22:56;11.38;;;4.40;;
73893;SDS011;62699;50.534;12.784;2023-01-10T16:27:57;9.48;;;3.58;;
73893;SDS011;62699;50.534;12.784;2023-01-10T16:33:02;18.27;;;8.10;;
73893;SDS011;62699;50.534;12.784;2023-01-10T16:38:10;11.35;;;3.70;;
73893;SDS011;62699;50.534;12.784;2023-01-10T16:43:11;4.75;;;3.00;;
73893;SDS011;62699;50.534;12.784;2023-01-10T16:48:18;7.35;;;2.92;;
73893;SDS011;62699;50.534;12.784;2023-01-10T16:53:20;6.53;;;2.65;;
73893;SDS011;62699;50.534;12.784;2023-01-10T16:58:20;10.15;;;3.50;;
73893;SDS011;62699;50.534;12.784;2023-01-10T17:03:21;5.78;;;3.08;;
73893;SDS011;62699;50.534;12.784;2023-01-10T17:08:23;9.30;;;2.90;;
73893;SDS011;62699;50.534;12.784;2023-01-10T17:13:25;10.02;;;6.00;;
73893;SDS011;62699;50.534;12.784;2023-01-10T17:18:28;5.10;;;2.75;;
73893;SDS011;62699;50.534;12.784;2023-01-10T17:23:28;4.53;;;2.58;;
73893;SDS011;62699;50.534;12.784;2023-01-10T17:28:29;12.32;;;8.77;;
73893;SDS011;62699;50.534;12.784;2023-01-10T17:33:30;13.88;;;8.13;;
73893;SDS011;62699;50.534;12.784;2023-01-10T17:38:31;11.18;;;6.95;;
73893;SDS011;62699;50.534;12.784;2023-01-10T17:43:31;9.05;;;4.57;;
73893;SDS011;62699;50.534;12.784;2023-01-10T17:48:32;6.13;;;3.58;;
73893;SDS011;62699;50.534;12.784;2023-01-10T17:53:33;8.55;;;4.50;;
73893;SDS011;62699;50.534;12.784;2023-01-10T17:58:33;7.45;;;4.38;;
73893;SDS011;62699;50.534;12.784;2023-01-10T18:03:34;15.02;;;6.82;;
73893;SDS011;62699;50.534;12.784;2023-01-10T18:08:35;13.20;;;4.90;;
73893;SDS011;62699;50.534;12.784;2023-01-10T18:13:35;8.27;;;4.60;;
73893;SDS011;62699;50.534;12.784;2023-01-10T18:18:35;9.06;;;4.08;;
73893;SDS011;62699;50.534;12.784;2023-01-10T18:23:35;8.85;;;5.20;;
73893;SDS011;62699;50.534;12.784;2023-01-10T18:28:37;9.63;;;4.68;;
73893;SDS011;62699;50.534;12.784;2023-01-10T18:33:39;11.23;;;5.20;;
73893;SDS011;62699;50.534;12.784;2023-01-10T18:38:39;10.20;;;4.88;;
73893;SDS011;62699;50.534;12.784;2023-01-10T18:43:39;12.98;;;7.03;;
73893;SDS011;62699;50.534;12.784;2023-01-10T18:48:40;11.75;;;5.40;;
73893;SDS011;62699;50.534;12.784;2023-01-10T18:53:40;11.68;;;6.20;;
73893;SDS011;62699;50.534;12.784;2023-01-10T18:58:41;12.95;;;4.95;;
73893;SDS011;62699;50.534;12.784;2023-01-10T19:03:42;11.65;;;6.45;;
73893;SDS011;62699;50.534;12.784;2023-01-10T19:08:43;13.25;;;6.03;;
73893;SDS011;62699;50.534;12.784;2023-01-10T19:13:45;10.68;;;5.72;;
73893;SDS011;62699;50.534;12.784;2023-01-10T19:18:47;19.35;;;9.40;;
73893;SDS011;62699;50.534;12.784;2023-01-10T19:23:52;25.05;;;12.50;;
73893;SDS011;62699;50.534;12.784;2023-01-10T19:28:57;23.77;;;12.00;;
73893;SDS011;62699;50.534;12.784;2023-01-10T19:33:57;35.22;;;16.25;;
73893;SDS011;62699;50.534;12.784;2023-01-10T19:38:59;30.88;;;14.60;;
73893;SDS011;62699;50.534;12.784;2023-01-10T19:44:00;70.40;;;29.35;;
73893;SDS011;62699;50.534;12.784;2023-01-10T19:49:03;35.60;;;16.02;;
73893;SDS011;62699;50.534;12.784;2023-01-10T19:54:07;61.53;;;29.90;;
73893;SDS011;62699;50.534;12.784;2023-01-10T19:59:07;49.42;;;26.92;;
73893;SDS011;62699;50.534;12.784;2023-01-10T20:04:08;64.35;;;31.25;;
73893;SDS011;62699;50.534;12.784;2023-01-10T20:09:09;43.75;;;23.38;;
73893;SDS011;62699;50.534;12.784;2023-01-10T20:14:16;47.05;;;24.92;;
73893;SDS011;62699;50.534;12.784;2023-01-10T20:19:18;45.90;;;25.08;;
73893;SDS011;62699;50.534;12.784;2023-01-10T20:24:19;48.63;;;29.02;;
73893;SDS011;62699;50.534;12.784;2023-01-10T20:29:20;60.72;;;34.33;;
73893;SDS011;62699;50.534;12.784;2023-01-10T20:34:20;67.70;;;38.00;;
73893;SDS011;62699;50.534;12.784;2023-01-10T20:39:22;33.75;;;19.70;;
73893;SDS011;62699;50.534;12.784;2023-01-10T20:44:24;39.30;;;20.60;;
73893;SDS011;62699;50.534;12.784;2023-01-10T20:49:25;50.22;;;31.65;;
73893;SDS011;62699;50.534;12.784;2023-01-10T20:54:26;31.90;;;15.80;;
73893;SDS011;62699;50.534;12.784;2023-01-10T20:59:26;28.25;;;17.80;;
73893;SDS011;62699;50.534;12.784;2023-01-10T21:04:28;41.67;;;22.27;;
73893;SDS011;62699;50.534;12.784;2023-01-10T21:09:29;65.93;;;32.40;;
73893;SDS011;62699;50.534;12.784;2023-01-10T21:14:29;100.57;;;44.95;;
73893;SDS011;62699;50.534;12.784;2023-01-10T21:19:29;67.18;;;32.00;;
73893;SDS011;62699;50.534;12.784;2023-01-10T21:24:29;69.30;;;31.17;;
73893;SDS011;62699;50.534;12.784;2023-01-10T21:29:30;39.88;;;17.54;;
73893;SDS011;62699;50.534;12.784;2023-01-10T21:34:30;20.92;;;10.45;;
73893;SDS011;62699;50.534;12.784;2023-01-10T21:39:30;20.58;;;8.82;;
73893;SDS011;62699;50.534;12.784;2023-01-10T21:44:31;18.92;;;6.72;;
73893;SDS011;62699;50.534;12.784;2023-01-10T21:49:31;23.08;;;7.10;;
73893;SDS011;62699;50.534;12.784;2023-01-10T21:54:31;11.65;;;4.95;;
73893;SDS011;62699;50.534;12.784;2023-01-10T21:59:32;9.10;;;4.25;;
73893;SDS011;62699;50.534;12.784;2023-01-10T22:04:33;11.75;;;3.53;;
73893;SDS011;62699;50.534;12.784;2023-01-10T22:09:33;11.38;;;3.85;;
73893;SDS011;62699;50.534;12.784;2023-01-10T22:14:35;7.45;;;3.67;;
73893;SDS011;62699;50.534;12.784;2023-01-10T22:19:35;11.23;;;3.85;;
73893;SDS011;62699;50.534;12.784;2023-01-10T22:24:35;14.82;;;4.47;;
73893;SDS011;62699;50.534;12.784;2023-01-10T22:29:36;17.20;;;5.07;;
73893;SDS011;62699;50.534;12.784;2023-01-10T22:34:36;6.90;;;3.40;;
73893;SDS011;62699;50.534;12.784;2023-01-10T22:39:37;13.82;;;4.03;;
73893;SDS011;62699;50.534;12.784;2023-01-10T22:44:37;8.70;;;2.88;;
73893;SDS011;62699;50.534;12.784;2023-01-10T22:49:37;11.50;;;4.22;;
73893;SDS011;62699;50.534;12.784;2023-01-10T22:54:37;11.05;;;3.30;;
73893;SDS011;62699;50.534;12.784;2023-01-10T22:59:38;8.30;;;3.47;;
73893;SDS011;62699;50.534;12.784;2023-01-10T23:04:38;6.78;;;2.92;;
73893;SDS011;62699;50.534;12.784;2023-01-10T23:09:38;4.90;;;2.72;;
73893;SDS011;62699;50.534;12.784;2023-01-10T23:14:38;8.52;;;3.13;;
73893;SDS011;62699;50.534;12.784;2023-01-10T23:19:38;7.50;;;3.47;;
73893;SDS011;62699;50.534;12.784;2023-01-10T23:24:39;8.60;;;3.10;;
73893;SDS011;62699;50.534;12.784;2023-01-10T23:29:39;8.52;;;3.40;;
73893;SDS011;62699;50.534;12.784;2023-01-10T23:34:39;4.93;;;2.33;;
73893;SDS011;62699;50.534;12.784;2023-01-10T23:39:50;6.80;;;2.65;;
73893;SDS011;62699;50.534;12.784;2023-01-10T23:44:51;8.48;;;2.85;;
73893;SDS011;62699;50.534;12.784;2023-01-10T23:49:51;5.45;;;2.60;;
73893;SDS011;62699;50.534;12.784;2023-01-10T23:54:51;5.13;;;2.20;;
73893;SDS011;62699;50.534;12.784;2023-01-10T23:59:52;7.22;;;2.42;;
